JST501 YSSY-YMML
Flight info
| Callsign | JST501 |
|---|---|
| Flight time | N/A |
| Altitude | 38000 |
| Route | YSSY/34R 3413S15110E LEECE Q29 BOOIN BOIN1A/34 |
| Aircraft | A21N/M-SDE2E3FGHIRWXY/LB1 |
Departure
| Time | N/A |
|---|---|
| Airport | Sydney Kingsford Smith International Airport (YSSY) |
Arrival
| Time | 2026-05-04 12:23 |
|---|---|
| Airport | Melbourne Airport (YMML) |
| Time | Latitude | Longitude | Altitude | Speed | Heading |
|---|---|---|---|---|---|
| 2026-05-04 12:06 | -37.27108 | 145.98059 | 20184 ft | 370 kts | 240° |
| 2026-05-04 12:06 | -37.28510 | 145.95383 | 19740 ft | 366 kts | 240° |
| 2026-05-04 12:06 | -37.29895 | 145.92741 | 19289 ft | 362 kts | 240° |
| 2026-05-04 12:06 | -37.31267 | 145.90124 | 18809 ft | 359 kts | 240° |
| 2026-05-04 12:07 | -37.32633 | 145.87525 | 18348 ft | 355 kts | 240° |
| 2026-05-04 12:07 | -37.33985 | 145.84950 | 17874 ft | 353 kts | 240° |
| 2026-05-04 12:07 | -37.35328 | 145.82391 | 17397 ft | 351 kts | 240° |
| 2026-05-04 12:07 | -37.36663 | 145.79847 | 16925 ft | 348 kts | 240° |
| 2026-05-04 12:08 | -37.37987 | 145.77321 | 16474 ft | 346 kts | 240° |
| 2026-05-04 12:08 | -37.39298 | 145.74817 | 16055 ft | 342 kts | 240° |
| 2026-05-04 12:08 | -37.40594 | 145.72337 | 15631 ft | 339 kts | 240° |
| 2026-05-04 12:08 | -37.41879 | 145.69877 | 15195 ft | 336 kts | 240° |
| 2026-05-04 12:09 | -37.43153 | 145.67436 | 14756 ft | 334 kts | 240° |
| 2026-05-04 12:09 | -37.44417 | 145.65012 | 14321 ft | 331 kts | 240° |
| 2026-05-04 12:09 | -37.45722 | 145.62645 | 13893 ft | 329 kts | 238° |
| 2026-05-04 12:09 | -37.47064 | 145.60331 | 13469 ft | 327 kts | 237° |
| 2026-05-04 12:10 | -37.48401 | 145.58038 | 13035 ft | 325 kts | 237° |
| 2026-05-04 12:10 | -37.49728 | 145.55760 | 12604 ft | 323 kts | 237° |
| 2026-05-04 12:10 | -37.51049 | 145.53488 | 12165 ft | 321 kts | 237° |
| 2026-05-04 12:10 | -37.52359 | 145.51234 | 11735 ft | 319 kts | 237° |
| 2026-05-04 12:11 | -37.53660 | 145.48993 | 11306 ft | 317 kts | 237° |
| 2026-05-04 12:11 | -37.54949 | 145.46769 | 10882 ft | 315 kts | 237° |
| 2026-05-04 12:11 | -37.56233 | 145.44555 | 10509 ft | 310 kts | 237° |
| 2026-05-04 12:11 | -37.57481 | 145.42407 | 10354 ft | 298 kts | 237° |
| 2026-05-04 12:12 | -37.58675 | 145.40352 | 10242 ft | 285 kts | 238° |
| 2026-05-04 12:12 | -37.59817 | 145.38383 | 10120 ft | 273 kts | 238° |
| 2026-05-04 12:12 | -37.60909 | 145.36496 | 9998 ft | 261 kts | 238° |
| 2026-05-04 12:12 | -37.61971 | 145.34656 | 9670 ft | 259 kts | 239° |
| 2026-05-04 12:13 | -37.63022 | 145.32826 | 9320 ft | 259 kts | 239° |
| 2026-05-04 12:14 | -37.70224 | 145.20324 | 7091 ft | 245 kts | 238° |
| 2026-05-04 12:15 | -37.71221 | 145.18592 | 6788 ft | 243 kts | 238° |
| 2026-05-04 12:15 | -37.72210 | 145.16872 | 6483 ft | 241 kts | 238° |
| 2026-05-04 12:15 | -37.73192 | 145.15167 | 6176 ft | 240 kts | 238° |
| 2026-05-04 12:15 | -37.74166 | 145.13472 | 5868 ft | 238 kts | 238° |
| 2026-05-04 12:16 | -37.75126 | 145.11805 | 5669 ft | 230 kts | 239° |
| 2026-05-04 12:16 | -37.76045 | 145.10210 | 5612 ft | 222 kts | 239° |
| 2026-05-04 12:16 | -37.76951 | 145.08626 | 5445 ft | 224 kts | 239° |
| 2026-05-04 12:16 | -37.77860 | 145.07038 | 5143 ft | 223 kts | 239° |
| 2026-05-04 12:17 | -37.78769 | 145.05453 | 4845 ft | 223 kts | 239° |
| 2026-05-04 12:17 | -37.79674 | 145.03871 | 4555 ft | 222 kts | 239° |
| 2026-05-04 12:17 | -37.80575 | 145.02294 | 4265 ft | 221 kts | 239° |
| 2026-05-04 12:17 | -37.81318 | 145.00626 | 3967 ft | 216 kts | 252° |
| 2026-05-04 12:18 | -37.81735 | 144.98827 | 3684 ft | 212 kts | 260° |
| 2026-05-04 12:18 | -37.82053 | 144.97032 | 3516 ft | 204 kts | 261° |
| 2026-05-04 12:18 | -37.82348 | 144.95328 | 3427 ft | 193 kts | 261° |
| 2026-05-04 12:18 | -37.82600 | 144.93671 | 3321 ft | 191 kts | 264° |
| 2026-05-04 12:19 | -37.82803 | 144.92014 | 3195 ft | 190 kts | 264° |
| 2026-05-04 12:19 | -37.83004 | 144.90370 | 3045 ft | 190 kts | 264° |
| 2026-05-04 12:19 | -37.83206 | 144.88717 | 2854 ft | 191 kts | 265° |
| 2026-05-04 12:19 | -37.83198 | 144.87066 | 2509 ft | 188 kts | 294° |
| 2026-05-04 12:20 | -37.82277 | 144.85942 | 2495 ft | 197 kts | 338° |
| 2026-05-04 12:20 | -37.80876 | 144.85819 | 2528 ft | 206 kts | 358° |
| 2026-05-04 12:20 | -37.79448 | 144.85903 | 2500 ft | 203 kts | 354° |
| 2026-05-04 12:20 | -37.78035 | 144.85824 | 2303 ft | 202 kts | 349° |
| 2026-05-04 12:21 | -37.76692 | 144.85636 | 2112 ft | 184 kts | 347° |
| 2026-05-04 12:21 | -37.75496 | 144.85413 | 1871 ft | 166 kts | 346° |
| 2026-05-04 12:21 | -37.74399 | 144.85197 | 1609 ft | 154 kts | 347° |
| 2026-05-04 12:21 | -37.73383 | 144.85003 | 1382 ft | 142 kts | 347° |
| 2026-05-04 12:22 | -37.72417 | 144.84820 | 1208 ft | 137 kts | 347° |
| 2026-05-04 12:22 | -37.71493 | 144.84647 | 1029 ft | 132 kts | 349° |
| 2026-05-04 12:22 | -37.70584 | 144.84476 | 862 ft | 132 kts | 349° |
| 2026-05-04 12:22 | -37.69678 | 144.84308 | 695 ft | 131 kts | 350° |
| 2026-05-04 12:23 | -37.68781 | 144.84139 | 557 ft | 130 kts | 351° |
| 2026-05-04 12:23 | -37.67903 | 144.83974 | 443 ft | 117 kts | 351° |
| 2026-05-04 12:23 | -37.67252 | 144.83851 | 442 ft | 68 kts | 353° |
| 2026-05-04 12:23 | -37.66947 | 144.83859 | 442 ft | 16 kts | 15° |
| 2026-05-04 12:24 | -37.66847 | 144.83905 | 442 ft | 11 kts | 22° |
| 2026-05-04 12:24 | -37.66825 | 144.83916 | 442 ft | 0 kts | 22° |
| 2026-05-04 12:24 | -37.66817 | 144.83921 | 442 ft | 6 kts | 25° |
| 2026-05-04 12:24 | -37.66802 | 144.83977 | 442 ft | 7 kts | 121° |
| 2026-05-04 12:25 | -37.66857 | 144.83999 | 442 ft | 9 kts | 172° |
| 2026-05-04 12:25 | -37.66924 | 144.84010 | 442 ft | 10 kts | 173° |
| 2026-05-04 12:25 | -37.66998 | 144.84025 | 442 ft | 11 kts | 170° |
| 2026-05-04 12:25 | -37.67079 | 144.84040 | 442 ft | 12 kts | 172° |
| 2026-05-04 12:26 | -37.67166 | 144.84055 | 442 ft | 12 kts | 171° |
| 2026-05-04 12:26 | -37.67249 | 144.84071 | 442 ft | 13 kts | 171° |
| 2026-05-04 12:26 | -37.67344 | 144.84090 | 442 ft | 14 kts | 171° |
| 2026-05-04 12:26 | -37.67443 | 144.84109 | 442 ft | 14 kts | 171° |
| 2026-05-04 12:27 | -37.67497 | 144.84199 | 442 ft | 14 kts | 86° |
| 2026-05-04 12:27 | -37.67484 | 144.84327 | 442 ft | 14 kts | 81° |
| 2026-05-04 12:27 | -37.67468 | 144.84457 | 442 ft | 15 kts | 82° |
| 2026-05-04 12:27 | -37.67453 | 144.84583 | 442 ft | 12 kts | 81° |
| 2026-05-04 12:28 | -37.67474 | 144.84629 | 442 ft | 7 kts | 156° |
| 2026-05-04 12:28 | -37.67513 | 144.84638 | 442 ft | 5 kts | 171° |
| 2026-05-04 12:28 | -37.67520 | 144.84639 | 442 ft | 0 kts | 171° |